Time;durP1;ratioP1;P1;durP2;ratioP2;P2;SDS_P1;SDS_P2;PMS_P1;PMS_P2;Temp;Humidity;BMP_temperature;BMP_pressure;BME280_temperature;BME280_humidity;BME280_pressure;Samples;Min_cycle;Max_cycle;Signal;HPM_P1;HPM_P2
2022/05/25 00:01:00;;;;;;;9.88;8.73;;;9.40;99.90;;;;;;5082395;28;20032;-71
2022/05/25 00:03:27;;;;;;;8.95;8.05;;;9.40;99.90;;;;;;5083408;28;20083;-71
2022/05/25 00:05:54;;;;;;;8.55;7.75;;;9.40;99.90;;;;;;5080527;28;20154;-71
2022/05/25 00:08:20;;;;;;;13.18;9.02;;;9.40;99.90;;;;;;5080523;28;20036;-71
2022/05/25 00:10:46;;;;;;;10.13;8.75;;;9.40;99.90;;;;;;5082306;28;20100;-71
2022/05/25 00:13:11;;;;;;;10.57;8.38;;;9.40;99.90;;;;;;5082688;28;20032;-71
2022/05/25 00:15:37;;;;;;;8.48;7.57;;;9.40;99.90;;;;;;5089227;28;20046;-71
2022/05/25 00:18:03;;;;;;;9.38;7.80;;;9.40;99.90;;;;;;5081609;28;20032;-71
2022/05/25 00:20:29;;;;;;;7.97;7.28;;;9.40;99.90;;;;;;5090325;28;20050;-71
2022/05/25 00:22:57;;;;;;;9.35;8.55;;;9.40;99.90;;;;;;5070888;28;20044;-71
2022/05/25 00:25:33;;;;;;;8.18;7.38;;;9.30;99.90;;;;;;5084806;28;20553;-71
2022/05/25 00:28:00;;;;;;;9.18;8.13;;;9.40;99.90;;;;;;5067150;28;20115;-71
2022/05/25 00:30:27;;;;;;;9.32;7.18;;;9.40;99.90;;;;;;5066193;28;20499;-71
2022/05/25 00:32:54;;;;;;;9.68;8.13;;;9.40;99.90;;;;;;5079825;28;20043;-71
2022/05/25 00:35:22;;;;;;;9.00;7.80;;;9.40;99.90;;;;;;5080982;28;20384;-71
2022/05/25 00:37:48;;;;;;;7.53;6.70;;;9.40;99.90;;;;;;5080676;28;20078;-71
2022/05/25 00:40:17;;;;;;;9.07;6.90;;;9.40;99.90;;;;;;5081271;28;20123;-71
2022/05/25 00:42:43;;;;;;;8.30;7.57;;;9.40;99.90;;;;;;5065188;28;20044;-71
2022/05/25 00:45:10;;;;;;;8.18;7.38;;;9.40;99.90;;;;;;5084795;28;20040;-71
2022/05/25 00:47:38;;;;;;;9.07;7.72;;;9.40;99.90;;;;;;5085857;28;20035;-71
2022/05/25 00:50:05;;;;;;;8.32;7.18;;;9.40;99.90;;;;;;5085006;28;20051;-71
2022/05/25 00:52:31;;;;;;;8.63;7.93;;;9.40;99.90;;;;;;5082309;28;20540;-71
2022/05/25 00:55:04;;;;;;;8.57;7.65;;;9.40;99.90;;;;;;5083268;28;20052;-71
2022/05/25 00:57:34;;;;;;;7.82;7.03;;;9.40;99.90;;;;;;5082131;28;20375;-71
2022/05/25 01:00:16;;;;;;;7.93;7.13;;;9.40;99.90;;;;;;5086851;28;20474;-71
2022/05/25 01:02:45;;;;;;;7.90;6.88;;;9.40;99.90;;;;;;5065415;28;20051;-71
2022/05/25 01:05:13;;;;;;;7.53;6.82;;;9.30;99.90;;;;;;5081191;28;20036;-71
2022/05/25 01:07:57;;;;;;;7.95;6.63;;;9.30;99.90;;;;;;5076841;28;20111;-71
2022/05/25 01:10:43;;;;;;;7.20;6.50;;;9.30;99.90;;;;;;5078738;28;20483;-71
2022/05/25 01:13:47;;;;;;;8.20;6.57;;;9.30;99.90;;;;;;5071782;28;20085;-71
2022/05/25 01:16:34;;;;;;;8.20;7.40;;;9.30;99.90;;;;;;5072256;28;20047;-71
2022/05/25 01:19:39;;;;;;;9.23;7.53;;;9.20;99.90;;;;;;5082501;28;20048;-71
2022/05/25 01:22:28;;;;;;;7.60;6.90;;;9.30;99.90;;;;;;5083022;28;20044;-71
2022/05/25 01:25:11;;;;;;;8.75;7.22;;;9.20;99.90;;;;;;5082522;28;20036;-71
2022/05/25 01:27:38;;;;;;;7.93;7.22;;;9.20;99.90;;;;;;5087210;28;20073;-71
2022/05/25 01:30:04;;;;;;;7.40;6.72;;;9.20;99.90;;;;;;5085953;28;20040;-71
2022/05/25 01:32:54;;;;;;;7.95;7.25;;;9.20;99.90;;;;;;5067023;28;20039;-71
2022/05/25 01:35:23;;;;;;;10.38;7.55;;;9.20;99.90;;;;;;5082322;28;20466;-71
2022/05/25 01:38:00;;;;;;;7.55;6.85;;;9.10;99.90;;;;;;5089495;28;20032;-71
2022/05/25 01:40:50;;;;;;;7.63;6.93;;;9.10;99.90;;;;;;5085322;28;20472;-71
2022/05/25 01:43:44;;;;;;;8.82;7.82;;;9.10;99.90;;;;;;5093109;28;20493;-71
2022/05/25 01:46:31;;;;;;;9.25;7.25;;;9.10;99.90;;;;;;5086721;28;20421;-71
2022/05/25 01:48:58;;;;;;;8.27;7.47;;;9.10;99.90;;;;;;5085666;28;20048;-71
2022/05/25 01:51:43;;;;;;;9.45;8.13;;;9.00;99.90;;;;;;5091737;28;20426;-71
2022/05/25 01:54:13;;;;;;;11.95;9.00;;;9.00;99.90;;;;;;5087070;28;20040;-71
2022/05/25 01:56:43;;;;;;;12.95;9.82;;;9.00;99.90;;;;;;5083575;28;20042;-71
2022/05/25 01:59:12;;;;;;;10.25;9.30;;;9.00;99.90;;;;;;5082591;28;20479;-71
2022/05/25 02:04:19;;;;;;;11.35;8.55;;;9.00;99.90;;;;;;5067620;28;20047;-71
2022/05/25 02:04:39;;;;;;;9.00;8.10;;;9.00;99.90;;;;;;5083691;28;20048;-71
2022/05/25 02:07:17;;;;;;;9.98;8.88;;;9.00;99.90;;;;;;5085843;28;20043;-71
2022/05/25 02:10:08;;;;;;;9.63;8.63;;;9.00;99.90;;;;;;5086888;28;20052;-71
2022/05/25 02:12:34;;;;;;;10.93;9.82;;;8.90;99.90;;;;;;5086286;28;20108;-71
2022/05/25 02:15:22;;;;;;;10.75;9.60;;;8.90;99.90;;;;;;5084018;28;20035;-70
2022/05/25 02:17:51;;;;;;;11.45;10.25;;;8.90;99.90;;;;;;5100313;28;20422;-70
2022/05/25 02:20:17;;;;;;;11.77;10.55;;;8.90;99.90;;;;;;5092447;28;20044;-70
2022/05/25 02:22:50;;;;;;;11.95;10.75;;;8.90;99.90;;;;;;5083193;28;20074;-70
2022/05/25 02:25:27;;;;;;;11.68;10.45;;;8.90;99.90;;;;;;5083129;28;20070;-70
2022/05/25 02:28:13;;;;;;;10.98;9.88;;;8.90;99.90;;;;;;5086326;28;20498;-70
2022/05/25 02:30:46;;;;;;;11.32;10.32;;;8.80;99.90;;;;;;5087129;28;20036;-70
2022/05/25 02:33:17;;;;;;;12.25;10.95;;;8.80;99.90;;;;;;5087266;28;20511;-70
2022/05/25 02:35:46;;;;;;;12.13;10.82;;;8.80;99.90;;;;;;5081237;28;20044;-70
2022/05/25 02:38:12;;;;;;;13.18;11.43;;;8.80;99.90;;;;;;5083147;28;20079;-70
2022/05/25 02:40:40;;;;;;;16.60;12.18;;;8.80;99.90;;;;;;5088280;28;20036;-70
2022/05/25 02:43:06;;;;;;;13.98;12.52;;;8.80;99.90;;;;;;5084010;28;20032;-70
2022/05/25 02:45:33;;;;;;;13.63;12.10;;;8.70;99.90;;;;;;5082018;28;20448;-70
2022/05/25 02:47:59;;;;;;;13.48;12.18;;;8.70;99.90;;;;;;5082211;28;20042;-70
2022/05/25 02:50:25;;;;;;;14.30;12.80;;;8.70;99.90;;;;;;5088309;28;20390;-70
2022/05/25 02:52:51;;;;;;;15.15;13.60;;;8.70;99.90;;;;;;5083208;28;20043;-70
2022/05/25 02:55:17;;;;;;;14.20;12.73;;;8.70;99.90;;;;;;5084609;28;20054;-70
2022/05/25 02:57:43;;;;;;;15.88;13.52;;;8.70;99.90;;;;;;5081678;28;20376;-70
2022/05/25 03:00:09;;;;;;;15.23;13.48;;;8.70;99.90;;;;;;5084954;28;20088;-70
2022/05/25 03:02:36;;;;;;;15.07;12.52;;;8.70;99.90;;;;;;5080722;28;20047;-70
2022/05/25 03:05:03;;;;;;;15.85;13.23;;;8.70;99.90;;;;;;5072126;28;20505;-70
2022/05/25 03:07:29;;;;;;;14.05;12.65;;;8.70;99.90;;;;;;5080931;28;20039;-70
2022/05/25 03:09:55;;;;;;;14.80;13.32;;;8.70;99.90;;;;;;5084667;28;20612;-70
2022/05/25 03:12:21;;;;;;;13.57;12.27;;;8.70;99.90;;;;;;5087131;28;20372;-70
2022/05/25 03:14:46;;;;;;;14.50;12.82;;;8.70;99.90;;;;;;5082221;28;20403;-70
2022/05/25 03:17:14;;;;;;;14.48;12.95;;;8.70;99.90;;;;;;5086050;28;20418;-70
2022/05/25 03:19:52;;;;;;;16.27;13.90;;;8.70;99.90;;;;;;5069215;28;20122;-70
2022/05/25 03:22:19;;;;;;;15.85;14.15;;;8.70;99.90;;;;;;5084028;28;20522;-70
2022/05/25 03:24:45;;;;;;;18.98;14.65;;;8.70;99.90;;;;;;5081571;28;20054;-70
2022/05/25 03:27:11;;;;;;;15.77;14.00;;;8.70;99.90;;;;;;5080365;28;20035;-70
2022/05/25 03:29:37;;;;;;;15.57;13.98;;;8.70;99.90;;;;;;5081817;28;20058;-70
2022/05/25 03:32:03;;;;;;;18.42;16.52;;;8.70;99.90;;;;;;5083028;28;20104;-70
2022/05/25 03:34:28;;;;;;;18.40;16.45;;;8.70;99.90;;;;;;5077008;28;20047;-70
2022/05/25 03:36:54;;;;;;;17.80;15.57;;;8.70;99.90;;;;;;5080567;28;20051;-70
2022/05/25 03:39:22;;;;;;;18.55;16.52;;;8.70;99.90;;;;;;5081529;28;20051;-70
2022/05/25 03:42:11;;;;;;;16.02;14.00;;;8.70;99.90;;;;;;5087415;28;20491;-70
2022/05/25 03:44:37;;;;;;;17.80;15.27;;;8.70;99.90;;;;;;5065070;28;20488;-69
2022/05/25 03:47:03;;;;;;;16.67;14.95;;;8.70;99.90;;;;;;5088441;28;20043;-69
2022/05/25 03:49:29;;;;;;;16.48;14.82;;;8.70;99.90;;;;;;5080499;28;20066;-69
2022/05/25 03:51:55;;;;;;;17.95;16.23;;;8.80;99.90;;;;;;5088791;28;20047;-69
2022/05/25 03:54:20;;;;;;;20.15;16.23;;;8.80;99.90;;;;;;5068421;28;20043;-70
2022/05/25 03:56:46;;;;;;;18.80;15.95;;;8.80;99.90;;;;;;5086753;28;20044;-70
2022/05/25 03:59:12;;;;;;;17.75;15.30;;;8.80;99.90;;;;;;5076834;28;20123;-70
2022/05/25 04:01:38;;;;;;;19.85;16.13;;;8.80;99.90;;;;;;5083399;28;20039;-70
2022/05/25 04:04:05;;;;;;;18.35;15.50;;;8.80;99.90;;;;;;5079196;28;20048;-69
2022/05/25 04:06:31;;;;;;;18.55;15.38;;;8.90;99.90;;;;;;5086571;28;20047;-69
2022/05/25 04:08:56;;;;;;;18.27;16.27;;;8.90;99.90;;;;;;5078524;28;20056;-69
2022/05/25 04:11:22;;;;;;;17.50;15.75;;;8.90;99.90;;;;;;5063317;28;20036;-69
2022/05/25 04:13:48;;;;;;;19.77;17.67;;;8.90;99.90;;;;;;5081572;28;20078;-69
2022/05/25 04:16:14;;;;;;;20.38;17.52;;;9.10;99.90;;;;;;5077354;28;20044;-69
2022/05/25 04:18:39;;;;;;;17.73;16.02;;;9.10;99.90;;;;;;5096188;28;20028;-69
2022/05/25 04:21:05;;;;;;;17.80;15.82;;;9.20;99.90;;;;;;5095554;28;20036;-69
2022/05/25 04:23:31;;;;;;;18.83;16.08;;;9.20;99.90;;;;;;5070961;28;20157;-70
2022/05/25 04:25:57;;;;;;;19.38;17.48;;;9.20;99.90;;;;;;5079349;28;20062;-70
2022/05/25 04:28:23;;;;;;;19.67;16.80;;;9.30;99.90;;;;;;5087878;28;20048;-70
2022/05/25 04:30:49;;;;;;;17.77;15.95;;;9.40;99.90;;;;;;5082246;28;20523;-70
2022/05/25 04:33:15;;;;;;;20.98;16.65;;;9.50;99.90;;;;;;5085374;28;20372;-70
2022/05/25 04:35:42;;;;;;;17.83;16.00;;;9.50;99.90;;;;;;5077211;28;20318;-70
2022/05/25 04:38:08;;;;;;;18.65;16.42;;;9.60;99.90;;;;;;5083892;28;20043;-70
2022/05/25 04:40:36;;;;;;;18.58;15.98;;;9.70;99.90;;;;;;5079345;28;20032;-70
2022/05/25 04:43:06;;;;;;;18.40;15.70;;;9.80;99.90;;;;;;5077997;28;20487;-70
2022/05/25 04:45:32;;;;;;;18.77;16.77;;;9.90;99.90;;;;;;5098025;28;20475;-69
2022/05/25 04:48:00;;;;;;;17.65;15.85;;;10.00;99.90;;;;;;5083341;28;20031;-69
2022/05/25 04:50:28;;;;;;;18.55;16.08;;;10.10;99.90;;;;;;5080264;28;20505;-69
2022/05/25 04:52:56;;;;;;;20.08;16.30;;;10.20;99.90;;;;;;5083527;28;20059;-69
2022/05/25 04:58:21;;;;;;;17.35;15.48;;;10.50;99.90;;;;;;5085100;28;20394;-69
2022/05/25 05:00:47;;;;;;;17.20;15.40;;;10.70;99.90;;;;;;5081739;28;20039;-69
2022/05/25 05:03:12;;;;;;;16.15;14.50;;;10.90;99.90;;;;;;5081894;28;20081;-69
2022/05/25 05:05:38;;;;;;;16.15;14.40;;;11.40;99.90;;;;;;5079969;28;20044;-69
2022/05/25 05:08:05;;;;;;;14.95;13.55;;;12.00;99.90;;;;;;5067892;28;20099;-69
2022/05/25 05:10:31;;;;;;;17.15;14.05;;;12.40;99.90;;;;;;5078044;28;20062;-69
2022/05/25 05:12:57;;;;;;;13.50;12.10;;;12.50;99.90;;;;;;5086253;28;20298;-69
2022/05/25 05:15:22;;;;;;;14.10;12.63;;;12.70;99.90;;;;;;5079880;28;20040;-69
2022/05/25 05:17:48;;;;;;;15.80;12.75;;;13.00;99.90;;;;;;5080709;28;20048;-69
2022/05/25 05:20:14;;;;;;;12.85;11.50;;;13.40;99.90;;;;;;5084448;28;20054;-69
2022/05/25 05:22:40;;;;;;;13.98;12.18;;;13.60;99.90;;;;;;5096780;28;20036;-70
2022/05/25 05:25:07;;;;;;;13.40;12.20;;;13.50;99.90;;;;;;5079650;28;20058;-70
2022/05/25 05:27:34;;;;;;;11.93;10.82;;;13.30;99.90;;;;;;5082095;28;20051;-70
2022/05/25 05:30:03;;;;;;;12.40;11.30;;;13.20;99.90;;;;;;5079060;28;20424;-69
2022/05/25 05:32:30;;;;;;;15.65;11.32;;;13.10;99.90;;;;;;5077033;28;20066;-69
2022/05/25 05:34:57;;;;;;;11.98;10.32;;;13.00;99.90;;;;;;5099340;28;20113;-69
2022/05/25 05:37:33;;;;;;;13.93;10.70;;;13.00;99.90;;;;;;5080075;28;20045;-69
2022/05/25 05:40:00;;;;;;;12.43;11.27;;;13.10;99.90;;;;;;5085302;28;20093;-69
2022/05/25 05:42:26;;;;;;;12.90;11.25;;;13.10;99.90;;;;;;5099143;28;20043;-69
2022/05/25 05:44:59;;;;;;;12.93;11.10;;;13.10;99.90;;;;;;5100960;28;20095;-69
2022/05/25 05:47:35;;;;;;;15.55;11.27;;;13.20;99.90;;;;;;5083603;28;20047;-69
2022/05/25 05:50:03;;;;;;;13.07;10.63;;;13.30;99.90;;;;;;5082926;28;20048;-69
2022/05/25 05:52:29;;;;;;;12.57;10.82;;;13.30;99.90;;;;;;5097638;28;20377;-70
2022/05/25 05:54:55;;;;;;;12.40;10.35;;;13.40;99.90;;;;;;5082131;28;20068;-70
2022/05/25 05:57:21;;;;;;;13.05;10.85;;;13.50;99.90;;;;;;5068770;28;20319;-70
2022/05/25 05:59:46;;;;;;;14.50;10.75;;;13.60;99.90;;;;;;5073489;28;20181;-70
2022/05/25 06:02:12;;;;;;;13.48;11.00;;;13.60;99.90;;;;;;5080326;28;20279;-71
2022/05/25 06:04:40;;;;;;;14.20;10.30;;;13.70;99.90;;;;;;5100719;28;20093;-70
2022/05/25 06:07:06;;;;;;;13.77;10.30;;;13.80;99.90;;;;;;5100425;28;20040;-70
2022/05/25 06:09:32;;;;;;;14.27;11.10;;;13.80;99.90;;;;;;5080439;28;20059;-71
2022/05/25 06:11:57;;;;;;;15.68;10.88;;;13.80;99.90;;;;;;5081780;28;20519;-71
2022/05/25 06:14:23;;;;;;;12.10;10.82;;;13.90;99.90;;;;;;5079279;28;20048;-71
2022/05/25 06:19:37;;;;;;;12.63;10.60;;;14.10;99.90;;;;;;5085191;28;20141;-71
2022/05/25 06:22:15;;;;;;;12.80;11.50;;;14.20;99.90;;;;;;5080406;28;20097;-71
2022/05/25 06:24:49;;;;;;;14.63;11.70;;;14.30;99.90;;;;;;5083869;28;20051;-71
2022/05/25 06:27:16;;;;;;;;;;;14.40;99.90;;;;;;5074939;28;20047;-71
2022/05/25 06:29:44;;;;;;;13.32;10.70;;;14.50;99.90;;;;;;5081494;28;20299;-71
2022/05/25 06:32:12;;;;;;;12.15;10.45;;;14.60;99.90;;;;;;5086577;28;20051;-71
2022/05/25 06:34:40;;;;;;;10.77;9.68;;;14.60;99.90;;;;;;5084417;28;20554;-71
2022/05/25 06:37:07;;;;;;;12.27;9.98;;;14.70;99.90;;;;;;5084803;28;20052;-71
2022/05/25 06:39:37;;;;;;;13.65;10.23;;;14.80;99.90;;;;;;5088511;28;20060;-71
2022/05/25 06:42:06;;;;;;;15.73;10.50;;;14.90;99.90;;;;;;5086158;28;20068;-72
2022/05/25 06:44:32;;;;;;;14.82;11.60;;;15.00;99.90;;;;;;5078212;28;20132;-71
2022/05/25 06:46:58;;;;;;;11.18;9.75;;;15.10;99.90;;;;;;5085753;28;20089;-71
2022/05/25 06:49:24;;;;;;;11.15;9.25;;;15.20;99.90;;;;;;5087073;28;20437;-71
2022/05/25 06:51:50;;;;;;;13.68;10.15;;;15.30;99.90;;;;;;5084145;28;20047;-71
2022/05/25 06:54:18;;;;;;;12.00;9.27;;;15.40;99.90;;;;;;5082660;28;20051;-71
2022/05/25 06:56:44;;;;;;;13.35;9.57;;;15.40;99.90;;;;;;5081080;28;20051;-71
2022/05/25 06:59:10;;;;;;;11.57;9.10;;;15.50;99.90;;;;;;5071560;28;20052;-72
2022/05/25 07:01:37;;;;;;;10.00;8.77;;;15.60;99.90;;;;;;5083867;28;20095;-72
2022/05/25 07:04:04;;;;;;;11.48;9.85;;;15.70;99.90;;;;;;5081102;28;20054;-72
2022/05/25 07:06:30;;;;;;;12.43;9.88;;;15.80;99.90;;;;;;5077329;28;20058;-71
2022/05/25 07:08:56;;;;;;;12.38;8.30;;;15.80;99.90;;;;;;5078384;28;20388;-71
2022/05/25 07:11:26;;;;;;;12.68;8.77;;;16.00;99.90;;;;;;5091906;28;20040;-71
2022/05/25 07:13:52;;;;;;;10.88;7.63;;;16.10;99.90;;;;;;5069427;28;20044;-73
2022/05/25 07:16:20;;;;;;;7.97;7.22;;;16.20;99.90;;;;;;5081616;28;20050;-72
2022/05/25 07:18:46;;;;;;;12.23;7.35;;;16.40;99.90;;;;;;5085547;28;20125;-71
2022/05/25 07:21:16;;;;;;;7.82;7.03;;;16.40;99.90;;;;;;5082143;28;20047;-71
2022/05/25 07:23:43;;;;;;;9.65;7.65;;;16.60;99.90;;;;;;5107115;28;20117;-72
2022/05/25 07:26:11;;;;;;;11.82;6.97;;;16.70;99.90;;;;;;5080679;28;20578;-72
2022/05/25 07:28:37;;;;;;;9.05;6.95;;;16.70;99.90;;;;;;5076771;28;20063;-72
2022/05/25 07:31:11;;;;;;;6.85;5.43;;;16.90;99.90;;;;;;5082637;28;20040;-72
2022/05/25 07:33:39;;;;;;;10.32;5.70;;;17.00;99.90;;;;;;5084152;28;20123;-73
2022/05/25 07:36:08;;;;;;;6.78;5.38;;;17.10;99.90;;;;;;5081490;28;20058;-72
2022/05/25 07:38:34;;;;;;;9.65;6.13;;;17.30;99.90;;;;;;5064259;28;20052;-72
2022/05/25 07:41:01;;;;;;;9.82;4.90;;;17.50;99.90;;;;;;5080439;28;20112;-73
2022/05/25 07:43:31;;;;;;;5.63;4.63;;;17.80;99.90;;;;;;5083364;28;20086;-72
2022/05/25 07:45:56;;;;;;;8.73;5.50;;;18.10;99.90;;;;;;5086085;28;20451;-72
2022/05/25 07:48:22;;;;;;;6.53;4.70;;;18.50;99.90;;;;;;5085028;28;20044;-73
2022/05/25 07:50:48;;;;;;;6.22;4.75;;;18.70;99.90;;;;;;5081724;28;20140;-73
2022/05/25 07:56:00;;;;;;;7.00;5.70;;;18.90;99.90;;;;;;5079384;28;20494;-73
2022/05/25 07:58:26;;;;;;;7.30;5.00;;;18.90;99.90;;;;;;5087487;28;20096;-72
2022/05/25 08:00:55;;;;;;;6.13;5.00;;;19.00;99.90;;;;;;5087730;28;20047;-73
2022/05/25 08:06:07;;;;;;;7.50;4.85;;;19.00;99.90;;;;;;5086435;28;20506;-72
2022/05/25 08:08:33;;;;;;;5.47;3.95;;;19.20;99.90;;;;;;5080384;28;20070;-74
2022/05/25 08:11:10;;;;;;;8.90;4.38;;;19.40;99.90;;;;;;5083200;28;20130;-73
2022/05/25 08:13:40;;;;;;;5.80;4.00;;;19.80;99.90;;;;;;5084987;28;20442;-73
2022/05/25 08:16:06;;;;;;;4.97;3.75;;;20.40;99.90;;;;;;5081536;28;20059;-73
2022/05/25 08:18:31;;;;;;;5.28;3.63;;;21.10;99.90;;;;;;5079392;28;20052;-73
2022/05/25 08:20:57;;;;;;;6.18;4.18;;;21.50;99.90;;;;;;5076923;28;20451;-73
2022/05/25 08:23:23;;;;;;;6.63;3.70;;;21.80;98.40;;;;;;5082618;28;20051;-73
2022/05/25 08:25:49;;;;;;;6.80;3.45;;;22.00;97.80;;;;;;5081686;28;20059;-73
2022/05/25 08:28:15;;;;;;;4.35;3.35;;;22.00;95.20;;;;;;5064346;28;20498;-73
2022/05/25 08:30:43;;;;;;;3.80;2.83;;;22.10;94.30;;;;;;5084685;28;20043;-74
2022/05/25 08:33:09;;;;;;;4.60;2.95;;;22.40;93.50;;;;;;5081082;28;20110;-73
2022/05/25 08:35:35;;;;;;;5.25;2.78;;;22.70;91.70;;;;;;5079564;28;20052;-71
2022/05/25 08:38:00;;;;;;;5.80;2.78;;;23.00;91.30;;;;;;5090486;28;20126;-72
2022/05/25 08:40:29;;;;;;;4.88;2.30;;;23.10;88.60;;;;;;5086653;28;20139;-72
2022/05/25 08:43:28;;;;;;;5.90;2.63;;;23.20;85.90;;;;;;5079908;28;20044;-72
2022/05/25 08:45:58;;;;;;;5.03;2.58;;;23.20;85.60;;;;;;5082131;28;20506;-73
2022/05/25 08:48:27;;;;;;;4.35;2.80;;;22.90;84.70;;;;;;5081413;28;20531;-73
2022/05/25 08:50:57;;;;;;;5.05;1.70;;;22.60;85.10;;;;;;5084655;28;20101;-72
2022/05/25 08:53:24;;;;;;;3.75;2.00;;;22.20;82.40;;;;;;5081615;28;20040;-73
2022/05/25 08:56:22;;;;;;;2.55;1.50;;;22.10;83.80;;;;;;5067787;28;20075;-72
2022/05/25 08:59:06;;;;;;;5.57;2.20;;;22.30;83.20;;;;;;5070630;28;20063;-72
2022/05/25 09:02:03;;;;;;;4.13;2.17;;;22.60;83.80;;;;;;5082328;28;20138;-73
2022/05/25 09:05:01;;;;;;;5.00;2.30;;;22.60;81.20;;;;;;5084538;28;20058;-72
2022/05/25 09:07:56;;;;;;;2.85;1.70;;;22.60;82.10;;;;;;5068283;28;20210;-72
2022/05/25 09:10:23;;;;;;;5.32;2.22;;;22.80;79.50;;;;;;5083742;28;20075;-72
2022/05/25 09:12:48;;;;;;;4.90;1.88;;;23.00;79.80;;;;;;5084982;28;20556;-72
2022/05/25 09:15:30;;;;;;;3.97;1.90;;;22.70;76.80;;;;;;5084967;28;20044;-72
2022/05/25 09:18:08;;;;;;;3.33;2.22;;;22.30;77.80;;;;;;5079557;28;20040;-72
2022/05/25 09:20:44;;;;;;;5.10;2.30;;;21.90;78.50;;;;;;5083483;28;20040;-71
2022/05/25 09:23:14;;;;;;;4.03;2.10;;;21.40;77.80;;;;;;5080423;28;20048;-71
2022/05/25 09:25:41;;;;;;;5.60;2.50;;;21.00;80.00;;;;;;5068413;28;20157;-72
2022/05/25 09:28:07;;;;;;;4.63;2.25;;;20.70;80.80;;;;;;5081717;28;20080;-71
2022/05/25 09:30:38;;;;;;;5.05;2.67;;;20.50;82.50;;;;;;5065576;28;20092;-71
2022/05/25 09:33:31;;;;;;;3.05;2.10;;;20.60;83.30;;;;;;5079131;28;20048;-71
2022/05/25 09:36:07;;;;;;;5.22;2.35;;;20.50;82.10;;;;;;5075215;28;20089;-71
2022/05/25 09:38:44;;;;;;;4.35;2.33;;;20.30;84.90;;;;;;5083611;28;20048;-71
2022/05/25 09:41:19;;;;;;;3.53;2.22;;;20.20;83.80;;;;;;5081592;28;20132;-71
2022/05/25 09:43:45;;;;;;;2.80;1.65;;;20.20;85.20;;;;;;5079984;28;20337;-71
2022/05/25 09:46:22;;;;;;;3.28;2.08;;;20.20;85.40;;;;;;5078728;28;20134;-71
2022/05/25 09:49:02;;;;;;;3.28;2.40;;;20.30;84.80;;;;;;5078257;28;20494;-71
2022/05/25 09:51:45;;;;;;;3.67;2.30;;;20.40;85.90;;;;;;5087397;28;20089;-71
2022/05/25 09:54:17;;;;;;;3.22;2.00;;;20.40;85.30;;;;;;5080285;28;20059;-71
2022/05/25 09:56:50;;;;;;;4.90;2.50;;;20.80;87.00;;;;;;5059508;28;20082;-71
2022/05/25 09:59:32;;;;;;;4.10;2.37;;;21.20;84.70;;;;;;5082510;28;20048;-71
2022/05/25 10:01:58;;;;;;;6.13;1.83;;;21.30;83.20;;;;;;5091132;28;20059;-71
2022/05/25 10:04:51;;;;;;;3.72;1.90;;;21.40;83.00;;;;;;5085618;28;20117;-70
2022/05/25 10:07:38;;;;;;;6.05;1.27;;;21.60;79.50;;;;;;5066955;28;20063;-71
2022/05/25 10:10:10;;;;;;;3.20;1.33;;;21.70;79.10;;;;;;5087065;28;20058;-71
2022/05/25 10:12:39;;;;;;;4.25;1.30;;;21.70;78.90;;;;;;5087662;28;20040;-71
2022/05/25 10:15:09;;;;;;;3.20;1.10;;;21.60;77.80;;;;;;5089347;28;20056;-71
2022/05/25 10:17:41;;;;;;;3.42;1.17;;;21.50;77.70;;;;;;5079000;28;20040;-71
2022/05/25 10:20:16;;;;;;;3.75;1.15;;;21.30;76.20;;;;;;5089978;28;20110;-71
2022/05/25 10:22:46;;;;;;;4.32;1.20;;;20.90;76.80;;;;;;5085521;28;20044;-71
2022/05/25 10:25:26;;;;;;;4.32;1.30;;;20.60;79.50;;;;;;5088542;28;20078;-71
2022/05/25 10:27:53;;;;;;;2.22;1.10;;;20.30;79.20;;;;;;5082500;28;20401;-70
2022/05/25 10:36:48;;;;;;;3.45;1.00;;;20.30;79.90;;;;;;5083344;28;20083;-72
2022/05/25 10:39:27;;;;;;;2.55;1.20;;;20.50;80.70;;;;;;5087714;28;20131;-71
2022/05/25 10:42:39;;;;;;;2.92;1.10;;;20.70;79.80;;;;;;5070284;28;20525;-71
2022/05/25 10:45:10;;;;;;;3.78;1.25;;;21.10;80.90;;;;;;5041219;28;20106;-71
2022/05/25 10:47:46;;;;;;;2.47;1.38;;;21.50;76.40;;;;;;5052260;28;20135;-71
2022/05/25 10:50:20;;;;;;;2.42;1.40;;;21.80;73.20;;;;;;5056610;28;20056;-71
2022/05/25 10:52:54;;;;;;;3.40;1.20;;;22.10;73.60;;;;;;5101043;28;20054;-71
2022/05/25 10:55:23;;;;;;;4.40;0.90;;;22.20;69.70;;;;;;5072202;28;20130;-71
2022/05/25 10:58:14;;;;;;;3.63;0.70;;;22.10;69.60;;;;;;5086554;28;20134;-71
2022/05/25 11:00:59;;;;;;;2.63;1.00;;;22.30;66.60;;;;;;5085017;28;20506;-71
2022/05/25 11:04:02;;;;;;;3.72;1.50;;;22.50;68.80;;;;;;5084052;28;20524;-72
2022/05/25 11:06:57;;;;;;;3.45;2.28;;;22.60;66.70;;;;;;5082424;28;20051;-71
2022/05/25 11:09:48;;;;;;;3.70;2.08;;;22.40;67.60;;;;;;5052057;28;20052;-72
2022/05/25 11:12:47;;;;;;;5.20;1.88;;;22.30;67.90;;;;;;5077033;28;20183;-72
2022/05/25 11:15:33;;;;;;;4.30;1.90;;;22.30;66.60;;;;;;5083745;28;20044;-71
2022/05/25 11:18:41;;;;;;;5.28;2.15;;;22.40;66.60;;;;;;5083368;28;20122;-72
2022/05/25 11:21:26;;;;;;;3.30;2.10;;;22.50;65.90;;;;;;5084678;28;20135;-72
2022/05/25 11:24:06;;;;;;;4.70;2.47;;;22.30;65.70;;;;;;5082861;28;20047;-72
2022/05/25 11:27:09;;;;;;;4.75;2.38;;;22.20;68.50;;;;;;5084991;28;20232;-72
2022/05/25 11:30:24;;;;;;;4.03;2.47;;;22.20;66.50;;;;;;5071280;28;20056;-72
2022/05/25 11:33:00;;;;;;;;;;;22.00;66.00;;;;;;4994757;28;20134;-73
2022/05/25 11:35:28;;;;;;;8.32;2.58;;;21.50;66.20;;;;;;5056880;28;19994;-72
2022/05/25 11:38:21;;;;;;;5.15;2.33;;;21.20;67.30;;;;;;5081815;28;20491;-72
2022/05/25 11:41:10;;;;;;;7.22;2.42;;;20.90;66.50;;;;;;5100034;28;20337;-72
2022/05/25 11:44:10;;;;;;;4.78;2.50;;;20.50;66.70;;;;;;5081537;28;20204;-71
2022/05/25 11:46:42;;;;;;;6.18;2.97;;;20.10;67.60;;;;;;5065718;28;20430;-71
2022/05/25 11:49:29;;;;;;;4.78;3.03;;;19.80;70.10;;;;;;5067472;28;20108;-72
2022/05/25 11:52:15;;;;;;;5.78;2.92;;;19.50;70.30;;;;;;5079152;28;20156;-71
2022/05/25 11:54:59;;;;;;;5.93;4.05;;;19.20;73.40;;;;;;5076194;28;20058;-70
2022/05/25 11:57:56;;;;;;;10.85;5.63;;;18.50;80.50;;;;;;5082629;28;20044;-71
2022/05/25 12:00:49;;;;;;;9.52;6.15;;;17.90;90.20;;;;;;5064640;28;20123;-72
2022/05/25 12:03:45;;;;;;;9.57;6.63;;;17.50;95.00;;;;;;5066442;28;20131;-72
2022/05/25 12:06:16;;;;;;;7.38;5.82;;;17.30;99.90;;;;;;5082863;28;20050;-72
2022/05/25 12:09:15;;;;;;;6.53;5.22;;;17.40;99.90;;;;;;5081984;28;20126;-72
2022/05/25 12:11:50;;;;;;;5.95;5.10;;;17.70;99.90;;;;;;5085688;28;20047;-71
2022/05/25 12:14:19;;;;;;;7.22;6.60;;;18.20;99.90;;;;;;5089488;28;20044;-71
2022/05/25 12:16:47;;;;;;;6.03;4.60;;;18.60;99.90;;;;;;5081535;28;20086;-70
2022/05/25 12:19:26;;;;;;;6.25;4.55;;;19.10;99.90;;;;;;5081808;28;20355;-70
2022/05/25 12:22:04;;;;;;;4.68;4.00;;;19.40;99.90;;;;;;5080689;28;20056;-70
2022/05/25 12:24:34;;;;;;;6.13;4.00;;;19.80;99.40;;;;;;5074910;28;20043;-70
2022/05/25 12:27:04;;;;;;;7.93;3.92;;;20.10;99.70;;;;;;5080747;28;20094;-70
2022/05/25 12:29:52;;;;;;;7.15;3.05;;;20.40;99.10;;;;;;5083868;28;20040;-70
2022/05/25 12:32:20;;;;;;;4.70;1.58;;;20.60;98.10;;;;;;5085280;28;20513;-70
2022/05/25 12:34:51;;;;;;;3.30;1.20;;;20.60;96.00;;;;;;5080355;28;20055;-70
2022/05/25 12:37:42;;;;;;;4.35;1.23;;;20.50;92.60;;;;;;5080316;28;20121;-70
2022/05/25 12:40:13;;;;;;;6.13;1.45;;;20.00;90.00;;;;;;5070280;28;20095;-70
2022/05/25 12:42:43;;;;;;;6.50;1.90;;;19.50;88.80;;;;;;5079893;28;20075;-70
2022/05/25 12:48:47;;;;;;;7.07;1.73;;;19.00;92.30;;;;;;5070466;28;20059;-70
2022/05/25 12:51:31;;;;;;;4.03;1.23;;;18.90;93.40;;;;;;5082008;28;20462;-70
2022/05/25 12:53:59;;;;;;;;;;;19.10;93.20;;;;;;5082357;28;20071;-70
2022/05/25 12:56:24;;;;;;;5.20;1.08;;;19.20;94.00;;;;;;5099431;28;19923;-70
2022/05/25 12:58:53;;;;;;;5.05;0.98;;;19.20;91.80;;;;;;5083944;28;20427;-70
2022/05/25 13:01:22;;;;;;;6.50;1.10;;;19.10;91.70;;;;;;5083608;28;20110;-70
2022/05/25 13:03:47;;;;;;;3.05;0.82;;;19.30;93.00;;;;;;5084316;28;20057;-70
2022/05/25 13:06:18;;;;;;;5.95;1.10;;;19.80;94.10;;;;;;5076736;28;20051;-70
2022/05/25 13:08:47;;;;;;;4.75;0.70;;;20.30;92.00;;;;;;5081732;28;20063;-70
2022/05/25 13:11:46;;;;;;;4.88;0.70;;;20.80;90.10;;;;;;5081557;28;20055;-70
2022/05/25 13:14:18;;;;;;;5.18;0.90;;;21.20;86.00;;;;;;5088405;28;20046;-72
2022/05/25 13:16:48;;;;;;;4.57;0.68;;;21.20;84.50;;;;;;5080995;28;20503;-71
2022/05/25 13:19:31;;;;;;;3.78;0.60;;;21.10;78.50;;;;;;5083093;28;20043;-71
2022/05/25 13:22:03;;;;;;;3.15;0.60;;;20.80;76.90;;;;;;5084168;28;20576;-71
2022/05/25 13:24:50;;;;;;;5.13;0.50;;;20.70;78.10;;;;;;5081799;28;20499;-71
2022/05/25 13:27:15;;;;;;;4.07;0.60;;;20.70;77.40;;;;;;5083358;28;20185;-71
2022/05/25 13:30:02;;;;;;;5.63;0.60;;;20.80;78.30;;;;;;5080598;28;20127;-70
2022/05/25 13:32:47;;;;;;;4.90;0.45;;;21.00;73.30;;;;;;5083806;28;20097;-71